sensor_id;sensor_type;location;lat;lon;timestamp;P1;durP1;ratioP1;P2;durP2;ratioP2
21959;SDS011;11144;43.030;25.108;2023-07-31T00:00:43;10.25;;;9.30;;
21959;SDS011;11144;43.030;25.108;2023-07-31T00:02:16;9.68;;;8.68;;
21959;SDS011;11144;43.030;25.108;2023-07-31T00:03:49;11.13;;;9.93;;
21959;SDS011;11144;43.030;25.108;2023-07-31T00:05:21;10.55;;;9.52;;
21959;SDS011;11144;43.030;25.108;2023-07-31T00:06:57;11.25;;;9.50;;
21959;SDS011;11144;43.030;25.108;2023-07-31T00:08:30;12.63;;;9.35;;
21959;SDS011;11144;43.030;25.108;2023-07-31T00:10:03;10.77;;;9.68;;
21959;SDS011;11144;43.030;25.108;2023-07-31T00:11:36;10.00;;;8.95;;
21959;SDS011;11144;43.030;25.108;2023-07-31T00:13:09;10.85;;;9.75;;
21959;SDS011;11144;43.030;25.108;2023-07-31T00:14:43;10.38;;;9.27;;
21959;SDS011;11144;43.030;25.108;2023-07-31T00:16:17;10.80;;;9.70;;
21959;SDS011;11144;43.030;25.108;2023-07-31T00:17:49;10.48;;;9.48;;
21959;SDS011;11144;43.030;25.108;2023-07-31T00:19:23;11.10;;;10.00;;
21959;SDS011;11144;43.030;25.108;2023-07-31T00:20:55;11.13;;;10.00;;
21959;SDS011;11144;43.030;25.108;2023-07-31T00:22:28;11.32;;;9.65;;
21959;SDS011;11144;43.030;25.108;2023-07-31T00:24:01;10.77;;;9.77;;
21959;SDS011;11144;43.030;25.108;2023-07-31T00:25:34;11.60;;;9.95;;
21959;SDS011;11144;43.030;25.108;2023-07-31T00:27:07;10.10;;;9.00;;
21959;SDS011;11144;43.030;25.108;2023-07-31T00:28:41;11.00;;;9.52;;
21959;SDS011;11144;43.030;25.108;2023-07-31T00:30:15;11.50;;;10.07;;
21959;SDS011;11144;43.030;25.108;2023-07-31T00:31:48;11.70;;;10.50;;
21959;SDS011;11144;43.030;25.108;2023-07-31T00:33:22;11.50;;;10.35;;
21959;SDS011;11144;43.030;25.108;2023-07-31T00:34:57;11.45;;;10.25;;
21959;SDS011;11144;43.030;25.108;2023-07-31T00:36:30;12.90;;;10.85;;
21959;SDS011;11144;43.030;25.108;2023-07-31T00:38:03;14.13;;;11.68;;
21959;SDS011;11144;43.030;25.108;2023-07-31T00:39:37;14.68;;;11.77;;
21959;SDS011;11144;43.030;25.108;2023-07-31T00:41:10;14.43;;;12.07;;
21959;SDS011;11144;43.030;25.108;2023-07-31T00:42:42;12.80;;;11.60;;
21959;SDS011;11144;43.030;25.108;2023-07-31T00:44:16;13.43;;;12.23;;
21959;SDS011;11144;43.030;25.108;2023-07-31T00:45:49;13.88;;;12.05;;
21959;SDS011;11144;43.030;25.108;2023-07-31T00:47:23;14.27;;;12.38;;
21959;SDS011;11144;43.030;25.108;2023-07-31T00:48:57;16.27;;;12.10;;
21959;SDS011;11144;43.030;25.108;2023-07-31T00:50:30;13.52;;;12.23;;
21959;SDS011;11144;43.030;25.108;2023-07-31T00:52:03;13.25;;;11.95;;
21959;SDS011;11144;43.030;25.108;2023-07-31T00:53:36;13.23;;;11.85;;
21959;SDS011;11144;43.030;25.108;2023-07-31T00:55:11;14.38;;;12.63;;
21959;SDS011;11144;43.030;25.108;2023-07-31T00:56:44;14.80;;;12.80;;
21959;SDS011;11144;43.030;25.108;2023-07-31T00:58:18;15.95;;;12.93;;
21959;SDS011;11144;43.030;25.108;2023-07-31T00:59:51;15.18;;;13.68;;
21959;SDS011;11144;43.030;25.108;2023-07-31T01:01:25;14.10;;;12.63;;
21959;SDS011;11144;43.030;25.108;2023-07-31T01:03:00;14.48;;;13.05;;
21959;SDS011;11144;43.030;25.108;2023-07-31T01:04:33;18.08;;;16.17;;
21959;SDS011;11144;43.030;25.108;2023-07-31T01:06:10;14.73;;;13.32;;
21959;SDS011;11144;43.030;25.108;2023-07-31T01:07:50;15.18;;;13.77;;
21959;SDS011;11144;43.030;25.108;2023-07-31T01:09:32;14.65;;;12.90;;
21959;SDS011;11144;43.030;25.108;2023-07-31T01:11:14;15.77;;;14.15;;
21959;SDS011;11144;43.030;25.108;2023-07-31T01:12:49;18.15;;;13.43;;
21959;SDS011;11144;43.030;25.108;2023-07-31T01:14:24;15.23;;;13.63;;
21959;SDS011;11144;43.030;25.108;2023-07-31T01:15:56;15.85;;;14.35;;
21959;SDS011;11144;43.030;25.108;2023-07-31T01:17:30;16.15;;;14.18;;
21959;SDS011;11144;43.030;25.108;2023-07-31T01:19:03;16.17;;;14.23;;
21959;SDS011;11144;43.030;25.108;2023-07-31T01:20:37;17.95;;;14.95;;
21959;SDS011;11144;43.030;25.108;2023-07-31T01:22:12;17.38;;;14.60;;
21959;SDS011;11144;43.030;25.108;2023-07-31T01:24:02;16.40;;;14.80;;
21959;SDS011;11144;43.030;25.108;2023-07-31T01:25:56;15.90;;;14.32;;
21959;SDS011;11144;43.030;25.108;2023-07-31T01:27:44;16.38;;;14.77;;
21959;SDS011;11144;43.030;25.108;2023-07-31T01:29:28;16.70;;;14.90;;
21959;SDS011;11144;43.030;25.108;2023-07-31T01:31:09;16.05;;;14.43;;
21959;SDS011;11144;43.030;25.108;2023-07-31T01:32:47;16.92;;;15.25;;
21959;SDS011;11144;43.030;25.108;2023-07-31T01:34:20;16.85;;;15.23;;
21959;SDS011;11144;43.030;25.108;2023-07-31T01:35:55;30.67;;;25.45;;
21959;SDS011;11144;43.030;25.108;2023-07-31T01:37:28;22.17;;;17.90;;
21959;SDS011;11144;43.030;25.108;2023-07-31T01:39:02;18.38;;;16.25;;
21959;SDS011;11144;43.030;25.108;2023-07-31T01:40:36;18.45;;;16.42;;
21959;SDS011;11144;43.030;25.108;2023-07-31T01:42:09;18.27;;;16.40;;
21959;SDS011;11144;43.030;25.108;2023-07-31T01:43:43;20.08;;;16.10;;
21959;SDS011;11144;43.030;25.108;2023-07-31T01:45:15;18.40;;;16.50;;
21959;SDS011;11144;43.030;25.108;2023-07-31T01:46:48;17.75;;;15.85;;
21959;SDS011;11144;43.030;25.108;2023-07-31T01:48:21;18.63;;;16.73;;
21959;SDS011;11144;43.030;25.108;2023-07-31T01:49:54;18.95;;;16.98;;
21959;SDS011;11144;43.030;25.108;2023-07-31T01:51:27;18.55;;;16.48;;
21959;SDS011;11144;43.030;25.108;2023-07-31T01:53:00;18.38;;;16.50;;
21959;SDS011;11144;43.030;25.108;2023-07-31T01:54:33;17.90;;;16.13;;
21959;SDS011;11144;43.030;25.108;2023-07-31T01:56:08;19.15;;;17.15;;
21959;SDS011;11144;43.030;25.108;2023-07-31T01:57:42;22.30;;;16.63;;
21959;SDS011;11144;43.030;25.108;2023-07-31T01:59:15;19.02;;;17.15;;
21959;SDS011;11144;43.030;25.108;2023-07-31T02:00:47;19.52;;;16.80;;
21959;SDS011;11144;43.030;25.108;2023-07-31T02:02:21;20.80;;;18.75;;
21959;SDS011;11144;43.030;25.108;2023-07-31T02:03:55;19.00;;;17.20;;
21959;SDS011;11144;43.030;25.108;2023-07-31T02:05:29;19.52;;;17.48;;
21959;SDS011;11144;43.030;25.108;2023-07-31T02:07:01;19.55;;;17.65;;
21959;SDS011;11144;43.030;25.108;2023-07-31T02:08:35;19.83;;;17.73;;
21959;SDS011;11144;43.030;25.108;2023-07-31T02:10:07;20.20;;;18.15;;
21959;SDS011;11144;43.030;25.108;2023-07-31T02:11:40;19.58;;;17.58;;
21959;SDS011;11144;43.030;25.108;2023-07-31T02:13:15;22.02;;;17.65;;
21959;SDS011;11144;43.030;25.108;2023-07-31T02:14:47;22.10;;;19.02;;
21959;SDS011;11144;43.030;25.108;2023-07-31T02:16:20;22.45;;;18.40;;
21959;SDS011;11144;43.030;25.108;2023-07-31T02:17:54;21.15;;;18.30;;
21959;SDS011;11144;43.030;25.108;2023-07-31T02:19:26;21.55;;;18.83;;
21959;SDS011;11144;43.030;25.108;2023-07-31T02:20:59;21.67;;;19.38;;
21959;SDS011;11144;43.030;25.108;2023-07-31T02:22:35;22.52;;;17.67;;
21959;SDS011;11144;43.030;25.108;2023-07-31T02:24:07;19.98;;;17.88;;
21959;SDS011;11144;43.030;25.108;2023-07-31T02:25:40;22.83;;;19.38;;
21959;SDS011;11144;43.030;25.108;2023-07-31T02:27:13;21.17;;;18.55;;
21959;SDS011;11144;43.030;25.108;2023-07-31T02:28:47;24.48;;;19.10;;
21959;SDS011;11144;43.030;25.108;2023-07-31T02:30:21;20.88;;;18.73;;
21959;SDS011;11144;43.030;25.108;2023-07-31T02:31:53;22.48;;;19.13;;
21959;SDS011;11144;43.030;25.108;2023-07-31T02:33:26;21.00;;;18.45;;
21959;SDS011;11144;43.030;25.108;2023-07-31T02:34:59;19.60;;;17.52;;
21959;SDS011;11144;43.030;25.108;2023-07-31T02:36:32;20.30;;;18.20;;
21959;SDS011;11144;43.030;25.108;2023-07-31T02:38:05;21.92;;;19.63;;
21959;SDS011;11144;43.030;25.108;2023-07-31T02:39:38;19.92;;;17.92;;
21959;SDS011;11144;43.030;25.108;2023-07-31T02:41:11;21.00;;;17.60;;
21959;SDS011;11144;43.030;25.108;2023-07-31T02:42:43;21.48;;;19.38;;
21959;SDS011;11144;43.030;25.108;2023-07-31T02:44:18;20.80;;;18.73;;
21959;SDS011;11144;43.030;25.108;2023-07-31T02:45:51;19.60;;;17.63;;
21959;SDS011;11144;43.030;25.108;2023-07-31T02:47:25;21.15;;;19.05;;
21959;SDS011;11144;43.030;25.108;2023-07-31T02:48:57;20.40;;;18.25;;
21959;SDS011;11144;43.030;25.108;2023-07-31T02:50:31;21.30;;;19.05;;
21959;SDS011;11144;43.030;25.108;2023-07-31T02:52:04;21.10;;;18.63;;
21959;SDS011;11144;43.030;25.108;2023-07-31T02:53:37;20.88;;;18.27;;
21959;SDS011;11144;43.030;25.108;2023-07-31T02:55:09;19.15;;;17.15;;
21959;SDS011;11144;43.030;25.108;2023-07-31T02:56:43;21.27;;;17.20;;
21959;SDS011;11144;43.030;25.108;2023-07-31T02:58:15;20.30;;;18.30;;
21959;SDS011;11144;43.030;25.108;2023-07-31T02:59:49;23.65;;;17.95;;
21959;SDS011;11144;43.030;25.108;2023-07-31T03:01:22;20.67;;;18.50;;
21959;SDS011;11144;43.030;25.108;2023-07-31T03:02:55;19.15;;;17.13;;
21959;SDS011;11144;43.030;25.108;2023-07-31T03:04:27;20.65;;;18.45;;
21959;SDS011;11144;43.030;25.108;2023-07-31T03:06:01;20.75;;;17.80;;
21959;SDS011;11144;43.030;25.108;2023-07-31T03:07:33;20.45;;;18.48;;
21959;SDS011;11144;43.030;25.108;2023-07-31T03:09:07;21.33;;;17.92;;
21959;SDS011;11144;43.030;25.108;2023-07-31T03:10:39;20.67;;;18.52;;
21959;SDS011;11144;43.030;25.108;2023-07-31T03:12:12;22.45;;;18.65;;
21959;SDS011;11144;43.030;25.108;2023-07-31T03:13:44;20.92;;;18.27;;
21959;SDS011;11144;43.030;25.108;2023-07-31T03:15:19;19.95;;;17.50;;
21959;SDS011;11144;43.030;25.108;2023-07-31T03:16:51;20.75;;;18.55;;
21959;SDS011;11144;43.030;25.108;2023-07-31T03:18:24;23.08;;;18.60;;
21959;SDS011;11144;43.030;25.108;2023-07-31T03:19:57;22.08;;;19.17;;
21959;SDS011;11144;43.030;25.108;2023-07-31T03:21:30;21.17;;;19.13;;
21959;SDS011;11144;43.030;25.108;2023-07-31T03:23:03;21.83;;;19.65;;
21959;SDS011;11144;43.030;25.108;2023-07-31T03:24:35;21.40;;;19.20;;
21959;SDS011;11144;43.030;25.108;2023-07-31T03:26:09;21.08;;;18.65;;
21959;SDS011;11144;43.030;25.108;2023-07-31T03:27:41;21.88;;;19.45;;
21959;SDS011;11144;43.030;25.108;2023-07-31T03:29:14;20.92;;;18.55;;
21959;SDS011;11144;43.030;25.108;2023-07-31T03:30:48;20.25;;;18.05;;
21959;SDS011;11144;43.030;25.108;2023-07-31T03:32:21;20.27;;;18.17;;
21959;SDS011;11144;43.030;25.108;2023-07-31T03:33:55;22.90;;;19.05;;
21959;SDS011;11144;43.030;25.108;2023-07-31T03:35:27;21.98;;;19.73;;
21959;SDS011;11144;43.030;25.108;2023-07-31T03:37:00;23.08;;;20.58;;
21959;SDS011;11144;43.030;25.108;2023-07-31T03:38:34;22.73;;;20.33;;
21959;SDS011;11144;43.030;25.108;2023-07-31T03:40:07;22.25;;;19.92;;
21959;SDS011;11144;43.030;25.108;2023-07-31T03:41:41;22.77;;;20.38;;
21959;SDS011;11144;43.030;25.108;2023-07-31T03:43:15;21.60;;;19.40;;
21959;SDS011;11144;43.030;25.108;2023-07-31T03:44:47;21.15;;;19.08;;
21959;SDS011;11144;43.030;25.108;2023-07-31T03:46:22;19.80;;;17.70;;
21959;SDS011;11144;43.030;25.108;2023-07-31T03:47:55;20.38;;;17.80;;
21959;SDS011;11144;43.030;25.108;2023-07-31T03:49:30;19.95;;;17.75;;
21959;SDS011;11144;43.030;25.108;2023-07-31T03:51:02;20.42;;;18.15;;
21959;SDS011;11144;43.030;25.108;2023-07-31T03:52:36;22.92;;;20.45;;
21959;SDS011;11144;43.030;25.108;2023-07-31T03:54:08;21.55;;;18.67;;
21959;SDS011;11144;43.030;25.108;2023-07-31T03:55:41;21.80;;;19.35;;
21959;SDS011;11144;43.030;25.108;2023-07-31T03:57:13;21.70;;;18.77;;
21959;SDS011;11144;43.030;25.108;2023-07-31T03:58:47;21.52;;;19.33;;
21959;SDS011;11144;43.030;25.108;2023-07-31T04:00:19;24.60;;;20.65;;
21959;SDS011;11144;43.030;25.108;2023-07-31T04:01:55;22.95;;;20.48;;
21959;SDS011;11144;43.030;25.108;2023-07-31T04:03:27;21.48;;;19.27;;
21959;SDS011;11144;43.030;25.108;2023-07-31T04:05:00;23.00;;;20.52;;
21959;SDS011;11144;43.030;25.108;2023-07-31T04:06:33;22.77;;;19.83;;
21959;SDS011;11144;43.030;25.108;2023-07-31T04:08:06;23.15;;;20.65;;
21959;SDS011;11144;43.030;25.108;2023-07-31T04:09:38;23.73;;;21.10;;
21959;SDS011;11144;43.030;25.108;2023-07-31T04:11:12;22.55;;;20.33;;
21959;SDS011;11144;43.030;25.108;2023-07-31T04:12:44;24.10;;;21.52;;
21959;SDS011;11144;43.030;25.108;2023-07-31T04:14:17;23.85;;;21.38;;
21959;SDS011;11144;43.030;25.108;2023-07-31T04:15:49;23.38;;;20.75;;
21959;SDS011;11144;43.030;25.108;2023-07-31T04:17:24;22.00;;;19.80;;
21959;SDS011;11144;43.030;25.108;2023-07-31T04:18:56;23.10;;;20.65;;
21959;SDS011;11144;43.030;25.108;2023-07-31T04:20:29;21.92;;;19.63;;
21959;SDS011;11144;43.030;25.108;2023-07-31T04:22:02;22.55;;;20.10;;
21959;SDS011;11144;43.030;25.108;2023-07-31T04:23:35;22.70;;;19.23;;
21959;SDS011;11144;43.030;25.108;2023-07-31T04:25:08;21.75;;;19.63;;
21959;SDS011;11144;43.030;25.108;2023-07-31T04:26:41;21.98;;;19.67;;
21959;SDS011;11144;43.030;25.108;2023-07-31T04:28:14;23.92;;;21.00;;
21959;SDS011;11144;43.030;25.108;2023-07-31T04:29:46;22.48;;;20.08;;
21959;SDS011;11144;43.030;25.108;2023-07-31T04:31:20;24.08;;;21.63;;
21959;SDS011;11144;43.030;25.108;2023-07-31T04:32:54;22.45;;;20.13;;
21959;SDS011;11144;43.030;25.108;2023-07-31T04:34:27;24.65;;;22.02;;
21959;SDS011;11144;43.030;25.108;2023-07-31T04:36:00;24.00;;;21.42;;
21959;SDS011;11144;43.030;25.108;2023-07-31T04:37:32;23.23;;;20.80;;
21959;SDS011;11144;43.030;25.108;2023-07-31T04:39:05;23.05;;;20.63;;
21959;SDS011;11144;43.030;25.108;2023-07-31T04:40:39;23.17;;;20.73;;
21959;SDS011;11144;43.030;25.108;2023-07-31T04:42:11;23.90;;;19.98;;
21959;SDS011;11144;43.030;25.108;2023-07-31T04:43:44;24.48;;;21.90;;
21959;SDS011;11144;43.030;25.108;2023-07-31T04:45:17;23.63;;;20.38;;
21959;SDS011;11144;43.030;25.108;2023-07-31T04:46:50;25.77;;;23.00;;
21959;SDS011;11144;43.030;25.108;2023-07-31T04:48:25;26.02;;;22.60;;
21959;SDS011;11144;43.030;25.108;2023-07-31T04:49:57;24.48;;;21.83;;
21959;SDS011;11144;43.030;25.108;2023-07-31T04:51:30;26.35;;;23.58;;
21959;SDS011;11144;43.030;25.108;2023-07-31T04:53:03;24.38;;;21.73;;
21959;SDS011;11144;43.030;25.108;2023-07-31T04:54:36;29.90;;;20.50;;
21959;SDS011;11144;43.030;25.108;2023-07-31T04:56:09;21.20;;;18.20;;
21959;SDS011;11144;43.030;25.108;2023-07-31T04:57:44;20.42;;;18.33;;
21959;SDS011;11144;43.030;25.108;2023-07-31T04:59:16;21.48;;;19.17;;
21959;SDS011;11144;43.030;25.108;2023-07-31T05:00:50;20.38;;;18.17;;
21959;SDS011;11144;43.030;25.108;2023-07-31T05:02:22;20.67;;;18.67;;
21959;SDS011;11144;43.030;25.108;2023-07-31T05:03:57;19.65;;;17.55;;
21959;SDS011;11144;43.030;25.108;2023-07-31T05:05:30;20.70;;;18.67;;
21959;SDS011;11144;43.030;25.108;2023-07-31T05:07:03;22.45;;;18.08;;
21959;SDS011;11144;43.030;25.108;2023-07-31T05:08:37;20.50;;;18.40;;
21959;SDS011;11144;43.030;25.108;2023-07-31T05:10:09;20.35;;;18.30;;
21959;SDS011;11144;43.030;25.108;2023-07-31T05:11:42;20.15;;;18.15;;
21959;SDS011;11144;43.030;25.108;2023-07-31T05:13:14;20.30;;;18.27;;
21959;SDS011;11144;43.030;25.108;2023-07-31T05:14:47;20.67;;;18.13;;
21959;SDS011;11144;43.030;25.108;2023-07-31T05:16:20;19.52;;;17.48;;
21959;SDS011;11144;43.030;25.108;2023-07-31T05:17:53;20.08;;;16.63;;
21959;SDS011;11144;43.030;25.108;2023-07-31T05:19:27;18.83;;;16.92;;
21959;SDS011;11144;43.030;25.108;2023-07-31T05:21:00;19.35;;;16.20;;
21959;SDS011;11144;43.030;25.108;2023-07-31T05:22:33;19.60;;;17.60;;
21959;SDS011;11144;43.030;25.108;2023-07-31T05:24:06;18.13;;;16.23;;
21959;SDS011;11144;43.030;25.108;2023-07-31T05:25:39;17.48;;;15.73;;
21959;SDS011;11144;43.030;25.108;2023-07-31T05:27:11;15.88;;;14.27;;
21959;SDS011;11144;43.030;25.108;2023-07-31T05:28:46;18.02;;;15.90;;
21959;SDS011;11144;43.030;25.108;2023-07-31T05:30:19;16.42;;;14.82;;
21959;SDS011;11144;43.030;25.108;2023-07-31T05:31:52;17.38;;;15.68;;
21959;SDS011;11144;43.030;25.108;2023-07-31T05:33:26;17.60;;;15.90;;
21959;SDS011;11144;43.030;25.108;2023-07-31T05:35:00;17.60;;;15.90;;
21959;SDS011;11144;43.030;25.108;2023-07-31T05:36:33;17.95;;;15.88;;
21959;SDS011;11144;43.030;25.108;2023-07-31T05:38:05;17.40;;;15.77;;
21959;SDS011;11144;43.030;25.108;2023-07-31T05:39:38;16.83;;;15.02;;
21959;SDS011;11144;43.030;25.108;2023-07-31T05:41:12;15.82;;;14.23;;
21959;SDS011;11144;43.030;25.108;2023-07-31T05:42:44;16.23;;;14.52;;
21959;SDS011;11144;43.030;25.108;2023-07-31T05:44:18;17.08;;;14.65;;
21959;SDS011;11144;43.030;25.108;2023-07-31T05:45:50;18.48;;;14.38;;
21959;SDS011;11144;43.030;25.108;2023-07-31T05:47:24;16.20;;;11.88;;
21959;SDS011;11144;43.030;25.108;2023-07-31T05:48:56;15.57;;;10.02;;
21959;SDS011;11144;43.030;25.108;2023-07-31T05:50:32;12.15;;;9.20;;
21959;SDS011;11144;43.030;25.108;2023-07-31T05:52:05;13.38;;;9.77;;
21959;SDS011;11144;43.030;25.108;2023-07-31T05:53:39;11.43;;;10.18;;
21959;SDS011;11144;43.030;25.108;2023-07-31T05:55:12;11.73;;;10.52;;
21959;SDS011;11144;43.030;25.108;2023-07-31T05:56:45;11.50;;;10.27;;
21959;SDS011;11144;43.030;25.108;2023-07-31T05:58:18;12.00;;;9.52;;
21959;SDS011;11144;43.030;25.108;2023-07-31T05:59:51;12.50;;;10.00;;
21959;SDS011;11144;43.030;25.108;2023-07-31T06:01:25;11.45;;;8.93;;
21959;SDS011;11144;43.030;25.108;2023-07-31T06:02:58;12.45;;;9.65;;
21959;SDS011;11144;43.030;25.108;2023-07-31T06:04:31;11.80;;;9.10;;
21959;SDS011;11144;43.030;25.108;2023-07-31T06:06:05;12.70;;;9.73;;
21959;SDS011;11144;43.030;25.108;2023-07-31T06:07:38;11.50;;;8.40;;
21959;SDS011;11144;43.030;25.108;2023-07-31T06:09:11;10.85;;;8.20;;
21959;SDS011;11144;43.030;25.108;2023-07-31T06:10:45;11.98;;;9.57;;
21959;SDS011;11144;43.030;25.108;2023-07-31T06:12:18;10.55;;;9.45;;
21959;SDS011;11144;43.030;25.108;2023-07-31T06:13:51;13.25;;;9.48;;
21959;SDS011;11144;43.030;25.108;2023-07-31T06:15:24;9.88;;;8.63;;
21959;SDS011;11144;43.030;25.108;2023-07-31T06:16:56;13.35;;;8.43;;
21959;SDS011;11144;43.030;25.108;2023-07-31T06:18:29;10.05;;;8.65;;
21959;SDS011;11144;43.030;25.108;2023-07-31T06:20:02;9.00;;;7.20;;
21959;SDS011;11144;43.030;25.108;2023-07-31T06:21:38;10.35;;;8.45;;
21959;SDS011;11144;43.030;25.108;2023-07-31T06:23:10;9.02;;;7.57;;
21959;SDS011;11144;43.030;25.108;2023-07-31T06:24:43;9.90;;;8.02;;
21959;SDS011;11144;43.030;25.108;2023-07-31T06:26:16;10.13;;;8.25;;
21959;SDS011;11144;43.030;25.108;2023-07-31T06:27:49;12.50;;;8.02;;
21959;SDS011;11144;43.030;25.108;2023-07-31T06:29:21;11.10;;;7.85;;
21959;SDS011;11144;43.030;25.108;2023-07-31T06:30:54;11.07;;;7.55;;
21959;SDS011;11144;43.030;25.108;2023-07-31T06:32:27;11.63;;;7.70;;
21959;SDS011;11144;43.030;25.108;2023-07-31T06:34:00;8.52;;;7.35;;
21959;SDS011;11144;43.030;25.108;2023-07-31T06:35:33;10.10;;;7.15;;
21959;SDS011;11144;43.030;25.108;2023-07-31T06:37:07;8.88;;;7.35;;
21959;SDS011;11144;43.030;25.108;2023-07-31T06:38:40;11.70;;;7.68;;
21959;SDS011;11144;43.030;25.108;2023-07-31T06:40:14;13.02;;;8.05;;
21959;SDS011;11144;43.030;25.108;2023-07-31T06:41:48;10.38;;;7.50;;
21959;SDS011;11144;43.030;25.108;2023-07-31T06:43:20;10.32;;;7.88;;
21959;SDS011;11144;43.030;25.108;2023-07-31T06:44:54;9.88;;;6.53;;
21959;SDS011;11144;43.030;25.108;2023-07-31T06:46:26;10.13;;;7.50;;
21959;SDS011;11144;43.030;25.108;2023-07-31T06:47:59;9.43;;;7.13;;
21959;SDS011;11144;43.030;25.108;2023-07-31T06:49:33;8.15;;;5.53;;
21959;SDS011;11144;43.030;25.108;2023-07-31T06:51:06;9.68;;;7.05;;
21959;SDS011;11144;43.030;25.108;2023-07-31T06:52:40;6.95;;;6.00;;
21959;SDS011;11144;43.030;25.108;2023-07-31T06:54:13;6.30;;;5.25;;
21959;SDS011;11144;43.030;25.108;2023-07-31T06:55:45;8.32;;;5.82;;
21959;SDS011;11144;43.030;25.108;2023-07-31T06:57:19;9.30;;;5.90;;
21959;SDS011;11144;43.030;25.108;2023-07-31T06:58:52;11.10;;;5.55;;
21959;SDS011;11144;43.030;25.108;2023-07-31T07:00:25;9.32;;;5.45;;
21959;SDS011;11144;43.030;25.108;2023-07-31T07:01:57;8.68;;;5.53;;
21959;SDS011;11144;43.030;25.108;2023-07-31T07:03:32;10.93;;;5.43;;
21959;SDS011;11144;43.030;25.108;2023-07-31T07:05:04;7.60;;;4.95;;
21959;SDS011;11144;43.030;25.108;2023-07-31T07:06:39;8.13;;;5.32;;
21959;SDS011;11144;43.030;25.108;2023-07-31T07:08:15;7.55;;;5.03;;
21959;SDS011;11144;43.030;25.108;2023-07-31T07:09:48;7.68;;;4.85;;
21959;SDS011;11144;43.030;25.108;2023-07-31T07:11:21;5.13;;;4.25;;
21959;SDS011;11144;43.030;25.108;2023-07-31T07:12:54;7.10;;;5.03;;
21959;SDS011;11144;43.030;25.108;2023-07-31T07:14:28;6.82;;;5.30;;
21959;SDS011;11144;43.030;25.108;2023-07-31T07:16:00;6.43;;;4.95;;
21959;SDS011;11144;43.030;25.108;2023-07-31T07:17:33;7.03;;;4.97;;
21959;SDS011;11144;43.030;25.108;2023-07-31T07:19:06;11.63;;;6.20;;
21959;SDS011;11144;43.030;25.108;2023-07-31T07:20:39;13.77;;;5.70;;
21959;SDS011;11144;43.030;25.108;2023-07-31T07:22:12;14.88;;;5.85;;
21959;SDS011;11144;43.030;25.108;2023-07-31T07:23:46;13.27;;;5.00;;
21959;SDS011;11144;43.030;25.108;2023-07-31T07:25:19;5.65;;;4.30;;
21959;SDS011;11144;43.030;25.108;2023-07-31T07:26:51;7.75;;;5.05;;
21959;SDS011;11144;43.030;25.108;2023-07-31T07:28:24;7.15;;;5.18;;
21959;SDS011;11144;43.030;25.108;2023-07-31T07:29:57;5.00;;;4.18;;
21959;SDS011;11144;43.030;25.108;2023-07-31T07:31:30;5.10;;;4.38;;
21959;SDS011;11144;43.030;25.108;2023-07-31T07:33:03;7.82;;;5.50;;
21959;SDS011;11144;43.030;25.108;2023-07-31T07:34:36;6.70;;;5.07;;
21959;SDS011;11144;43.030;25.108;2023-07-31T07:36:09;9.27;;;4.95;;
21959;SDS011;11144;43.030;25.108;2023-07-31T07:37:44;9.57;;;6.43;;
21959;SDS011;11144;43.030;25.108;2023-07-31T07:39:18;8.07;;;4.85;;
21959;SDS011;11144;43.030;25.108;2023-07-31T07:40:51;6.53;;;4.40;;
21959;SDS011;11144;43.030;25.108;2023-07-31T07:42:25;4.63;;;4.18;;
21959;SDS011;11144;43.030;25.108;2023-07-31T07:43:57;5.15;;;4.15;;
21959;SDS011;11144;43.030;25.108;2023-07-31T07:45:30;4.75;;;3.88;;
21959;SDS011;11144;43.030;25.108;2023-07-31T07:47:03;5.85;;;5.00;;
21959;SDS011;11144;43.030;25.108;2023-07-31T07:48:37;6.95;;;4.30;;
21959;SDS011;11144;43.030;25.108;2023-07-31T07:50:10;5.38;;;4.88;;
21959;SDS011;11144;43.030;25.108;2023-07-31T07:51:45;6.28;;;4.57;;
21959;SDS011;11144;43.030;25.108;2023-07-31T07:53:17;4.72;;;4.13;;
21959;SDS011;11144;43.030;25.108;2023-07-31T07:54:51;4.93;;;3.45;;
21959;SDS011;11144;43.030;25.108;2023-07-31T07:56:25;4.25;;;3.83;;
21959;SDS011;11144;43.030;25.108;2023-07-31T07:57:58;4.43;;;3.67;;
21959;SDS011;11144;43.030;25.108;2023-07-31T07:59:32;3.97;;;3.00;;
21959;SDS011;11144;43.030;25.108;2023-07-31T08:01:06;8.02;;;4.40;;
21959;SDS011;11144;43.030;25.108;2023-07-31T08:02:38;4.35;;;3.95;;
21959;SDS011;11144;43.030;25.108;2023-07-31T08:04:11;5.18;;;3.50;;
21959;SDS011;11144;43.030;25.108;2023-07-31T08:05:45;3.33;;;2.80;;
21959;SDS011;11144;43.030;25.108;2023-07-31T08:07:18;4.70;;;3.05;;
21959;SDS011;11144;43.030;25.108;2023-07-31T08:08:50;8.70;;;3.70;;
21959;SDS011;11144;43.030;25.108;2023-07-31T08:10:25;23.52;;;6.63;;
21959;SDS011;11144;43.030;25.108;2023-07-31T08:11:58;14.77;;;4.90;;
21959;SDS011;11144;43.030;25.108;2023-07-31T08:13:34;4.15;;;3.33;;
21959;SDS011;11144;43.030;25.108;2023-07-31T08:15:08;5.82;;;3.38;;
21959;SDS011;11144;43.030;25.108;2023-07-31T08:16:40;4.93;;;3.75;;
21959;SDS011;11144;43.030;25.108;2023-07-31T08:18:14;7.05;;;3.33;;
21959;SDS011;11144;43.030;25.108;2023-07-31T08:19:47;4.47;;;3.50;;
21959;SDS011;11144;43.030;25.108;2023-07-31T08:21:21;3.47;;;2.80;;
21959;SDS011;11144;43.030;25.108;2023-07-31T08:22:53;3.30;;;2.88;;
21959;SDS011;11144;43.030;25.108;2023-07-31T08:24:26;3.95;;;2.53;;
21959;SDS011;11144;43.030;25.108;2023-07-31T08:26:00;11.88;;;6.30;;
21959;SDS011;11144;43.030;25.108;2023-07-31T08:27:33;29.17;;;16.17;;
21959;SDS011;11144;43.030;25.108;2023-07-31T08:29:05;12.55;;;9.32;;
21959;SDS011;11144;43.030;25.108;2023-07-31T08:30:39;9.15;;;7.13;;
21959;SDS011;11144;43.030;25.108;2023-07-31T08:32:11;9.00;;;5.38;;
21959;SDS011;11144;43.030;25.108;2023-07-31T08:33:44;15.57;;;10.43;;
21959;SDS011;11144;43.030;25.108;2023-07-31T08:35:17;14.30;;;9.88;;
21959;SDS011;11144;43.030;25.108;2023-07-31T08:36:50;5.50;;;3.63;;
21959;SDS011;11144;43.030;25.108;2023-07-31T08:38:23;3.75;;;3.15;;
21959;SDS011;11144;43.030;25.108;2023-07-31T08:39:57;3.08;;;2.60;;
21959;SDS011;11144;43.030;25.108;2023-07-31T08:41:31;4.60;;;2.63;;
21959;SDS011;11144;43.030;25.108;2023-07-31T08:43:04;4.70;;;2.45;;
21959;SDS011;11144;43.030;25.108;2023-07-31T08:44:36;2.78;;;1.95;;
21959;SDS011;11144;43.030;25.108;2023-07-31T08:46:11;5.00;;;3.85;;
21959;SDS011;11144;43.030;25.108;2023-07-31T08:47:44;7.15;;;4.95;;
21959;SDS011;11144;43.030;25.108;2023-07-31T08:49:19;3.15;;;2.50;;
21959;SDS011;11144;43.030;25.108;2023-07-31T08:50:53;3.95;;;3.15;;
21959;SDS011;11144;43.030;25.108;2023-07-31T08:52:26;2.65;;;2.15;;
21959;SDS011;11144;43.030;25.108;2023-07-31T08:53:59;4.82;;;2.60;;
21959;SDS011;11144;43.030;25.108;2023-07-31T08:55:32;3.03;;;2.15;;
21959;SDS011;11144;43.030;25.108;2023-07-31T08:57:07;3.38;;;2.30;;
21959;SDS011;11144;43.030;25.108;2023-07-31T08:58:40;4.07;;;2.97;;
21959;SDS011;11144;43.030;25.108;2023-07-31T09:00:14;4.38;;;2.35;;
21959;SDS011;11144;43.030;25.108;2023-07-31T09:01:48;3.63;;;2.40;;
21959;SDS011;11144;43.030;25.108;2023-07-31T09:03:23;6.63;;;2.22;;